sensor_id;sensor_type;location;lat;lon;timestamp;P1;durP1;ratioP1;P2;durP2;ratioP2
64826;SDS011;51265;53.972;12.286;2023-12-29T00:01:46;5.78;;;1.52;;
64826;SDS011;51265;53.972;12.286;2023-12-29T00:04:13;4.50;;;1.35;;
64826;SDS011;51265;53.972;12.286;2023-12-29T00:06:39;7.60;;;1.10;;
64826;SDS011;51265;53.972;12.286;2023-12-29T00:09:07;6.70;;;1.13;;
64826;SDS011;51265;53.972;12.286;2023-12-29T00:11:33;4.93;;;0.98;;
64826;SDS011;51265;53.972;12.286;2023-12-29T00:13:59;4.38;;;1.35;;
64826;SDS011;51265;53.972;12.286;2023-12-29T00:16:29;3.92;;;0.75;;
64826;SDS011;51265;53.972;12.286;2023-12-29T00:18:55;5.75;;;1.33;;
64826;SDS011;51265;53.972;12.286;2023-12-29T00:21:21;4.00;;;1.00;;
64826;SDS011;51265;53.972;12.286;2023-12-29T00:23:47;6.70;;;1.30;;
64826;SDS011;51265;53.972;12.286;2023-12-29T00:26:17;4.78;;;1.35;;
64826;SDS011;51265;53.972;12.286;2023-12-29T00:28:44;4.35;;;1.30;;
64826;SDS011;51265;53.972;12.286;2023-12-29T00:31:13;4.00;;;1.13;;
64826;SDS011;51265;53.972;12.286;2023-12-29T00:33:42;3.47;;;0.73;;
64826;SDS011;51265;53.972;12.286;2023-12-29T00:36:17;6.28;;;1.02;;
64826;SDS011;51265;53.972;12.286;2023-12-29T00:38:44;5.13;;;1.10;;
64826;SDS011;51265;53.972;12.286;2023-12-29T00:41:10;2.38;;;0.80;;
64826;SDS011;51265;53.972;12.286;2023-12-29T00:43:36;5.38;;;1.20;;
64826;SDS011;51265;53.972;12.286;2023-12-29T00:46:03;3.75;;;0.85;;
64826;SDS011;51265;53.972;12.286;2023-12-29T00:48:30;3.60;;;1.00;;
64826;SDS011;51265;53.972;12.286;2023-12-29T00:50:57;3.05;;;0.80;;
64826;SDS011;51265;53.972;12.286;2023-12-29T00:53:23;2.40;;;0.68;;
64826;SDS011;51265;53.972;12.286;2023-12-29T00:55:49;4.22;;;1.20;;
64826;SDS011;51265;53.972;12.286;2023-12-29T00:58:16;4.30;;;1.05;;
64826;SDS011;51265;53.972;12.286;2023-12-29T01:00:42;3.85;;;1.25;;
64826;SDS011;51265;53.972;12.286;2023-12-29T01:03:08;2.63;;;0.88;;
64826;SDS011;51265;53.972;12.286;2023-12-29T01:05:34;4.68;;;0.90;;
64826;SDS011;51265;53.972;12.286;2023-12-29T01:08:00;6.82;;;1.75;;
64826;SDS011;51265;53.972;12.286;2023-12-29T01:10:26;7.22;;;0.90;;
64826;SDS011;51265;53.972;12.286;2023-12-29T01:12:53;4.05;;;1.15;;
64826;SDS011;51265;53.972;12.286;2023-12-29T01:15:19;7.00;;;1.33;;
64826;SDS011;51265;53.972;12.286;2023-12-29T01:17:46;2.38;;;0.68;;
64826;SDS011;51265;53.972;12.286;2023-12-29T01:20:13;5.20;;;1.00;;
64826;SDS011;51265;53.972;12.286;2023-12-29T01:22:39;3.58;;;0.80;;
64826;SDS011;51265;53.972;12.286;2023-12-29T01:25:05;4.65;;;1.27;;
64826;SDS011;51265;53.972;12.286;2023-12-29T01:27:32;2.15;;;0.95;;
64826;SDS011;51265;53.972;12.286;2023-12-29T01:29:58;5.05;;;1.20;;
64826;SDS011;51265;53.972;12.286;2023-12-29T01:32:25;5.40;;;1.27;;
64826;SDS011;51265;53.972;12.286;2023-12-29T01:34:53;5.93;;;1.35;;
64826;SDS011;51265;53.972;12.286;2023-12-29T01:37:19;4.63;;;1.38;;
64826;SDS011;51265;53.972;12.286;2023-12-29T01:39:45;5.70;;;1.40;;
64826;SDS011;51265;53.972;12.286;2023-12-29T01:42:11;6.70;;;1.90;;
64826;SDS011;51265;53.972;12.286;2023-12-29T01:44:37;5.28;;;1.60;;
64826;SDS011;51265;53.972;12.286;2023-12-29T01:47:05;6.85;;;1.70;;
64826;SDS011;51265;53.972;12.286;2023-12-29T01:49:39;5.47;;;1.15;;
64826;SDS011;51265;53.972;12.286;2023-12-29T01:52:06;6.85;;;1.02;;
64826;SDS011;51265;53.972;12.286;2023-12-29T01:54:34;5.25;;;1.13;;
64826;SDS011;51265;53.972;12.286;2023-12-29T01:57:04;5.30;;;1.52;;
64826;SDS011;51265;53.972;12.286;2023-12-29T01:59:30;3.53;;;1.00;;
64826;SDS011;51265;53.972;12.286;2023-12-29T02:01:57;7.13;;;1.90;;
64826;SDS011;51265;53.972;12.286;2023-12-29T02:04:24;6.57;;;1.40;;
64826;SDS011;51265;53.972;12.286;2023-12-29T02:06:51;5.97;;;1.33;;
64826;SDS011;51265;53.972;12.286;2023-12-29T02:09:17;4.22;;;1.50;;
64826;SDS011;51265;53.972;12.286;2023-12-29T02:11:44;6.82;;;1.60;;
64826;SDS011;51265;53.972;12.286;2023-12-29T02:14:11;5.85;;;1.60;;
64826;SDS011;51265;53.972;12.286;2023-12-29T02:20:07;6.28;;;1.88;;
64826;SDS011;51265;53.972;12.286;2023-12-29T02:22:35;3.53;;;1.08;;
64826;SDS011;51265;53.972;12.286;2023-12-29T02:25:01;4.53;;;1.17;;
64826;SDS011;51265;53.972;12.286;2023-12-29T02:30:10;6.22;;;1.40;;
64826;SDS011;51265;53.972;12.286;2023-12-29T02:32:45;4.25;;;1.25;;
64826;SDS011;51265;53.972;12.286;2023-12-29T02:35:19;8.43;;;1.90;;
64826;SDS011;51265;53.972;12.286;2023-12-29T02:37:50;7.13;;;1.70;;
64826;SDS011;51265;53.972;12.286;2023-12-29T02:40:17;6.32;;;1.58;;
64826;SDS011;51265;53.972;12.286;2023-12-29T02:42:47;10.35;;;2.03;;
64826;SDS011;51265;53.972;12.286;2023-12-29T02:45:14;7.18;;;1.48;;
64826;SDS011;51265;53.972;12.286;2023-12-29T02:47:41;7.63;;;1.75;;
64826;SDS011;51265;53.972;12.286;2023-12-29T02:50:08;10.00;;;1.70;;
64826;SDS011;51265;53.972;12.286;2023-12-29T02:52:35;6.85;;;2.17;;
64826;SDS011;51265;53.972;12.286;2023-12-29T02:55:03;8.80;;;2.10;;
64826;SDS011;51265;53.972;12.286;2023-12-29T02:57:29;5.47;;;1.80;;
64826;SDS011;51265;53.972;12.286;2023-12-29T02:59:56;7.38;;;1.48;;
64826;SDS011;51265;53.972;12.286;2023-12-29T03:02:22;4.95;;;1.60;;
64826;SDS011;51265;53.972;12.286;2023-12-29T03:04:49;10.85;;;1.77;;
64826;SDS011;51265;53.972;12.286;2023-12-29T03:07:16;4.78;;;1.60;;
64826;SDS011;51265;53.972;12.286;2023-12-29T03:09:42;6.28;;;1.60;;
64826;SDS011;51265;53.972;12.286;2023-12-29T03:12:08;7.70;;;1.95;;
64826;SDS011;51265;53.972;12.286;2023-12-29T03:14:35;5.35;;;1.42;;
64826;SDS011;51265;53.972;12.286;2023-12-29T03:17:01;8.45;;;2.15;;
64826;SDS011;51265;53.972;12.286;2023-12-29T03:19:27;9.27;;;2.35;;
64826;SDS011;51265;53.972;12.286;2023-12-29T03:21:53;5.88;;;1.55;;
64826;SDS011;51265;53.972;12.286;2023-12-29T03:24:20;4.18;;;1.30;;
64826;SDS011;51265;53.972;12.286;2023-12-29T03:26:48;4.65;;;1.55;;
64826;SDS011;51265;53.972;12.286;2023-12-29T03:29:14;7.32;;;1.92;;
64826;SDS011;51265;53.972;12.286;2023-12-29T03:31:40;6.97;;;1.73;;
64826;SDS011;51265;53.972;12.286;2023-12-29T03:34:07;9.13;;;1.80;;
64826;SDS011;51265;53.972;12.286;2023-12-29T03:36:33;6.18;;;1.83;;
64826;SDS011;51265;53.972;12.286;2023-12-29T03:38:59;6.53;;;1.55;;
64826;SDS011;51265;53.972;12.286;2023-12-29T03:41:25;9.05;;;1.60;;
64826;SDS011;51265;53.972;12.286;2023-12-29T03:43:51;7.35;;;1.38;;
64826;SDS011;51265;53.972;12.286;2023-12-29T03:46:18;5.30;;;1.60;;
64826;SDS011;51265;53.972;12.286;2023-12-29T03:48:45;6.63;;;1.63;;
64826;SDS011;51265;53.972;12.286;2023-12-29T03:51:11;4.28;;;1.60;;
64826;SDS011;51265;53.972;12.286;2023-12-29T03:53:37;6.38;;;1.85;;
64826;SDS011;51265;53.972;12.286;2023-12-29T03:56:04;5.30;;;1.30;;
64826;SDS011;51265;53.972;12.286;2023-12-29T03:58:31;4.18;;;1.35;;
64826;SDS011;51265;53.972;12.286;2023-12-29T04:00:58;3.50;;;1.33;;
64826;SDS011;51265;53.972;12.286;2023-12-29T04:03:24;4.47;;;1.40;;
64826;SDS011;51265;53.972;12.286;2023-12-29T04:05:51;3.75;;;1.23;;
64826;SDS011;51265;53.972;12.286;2023-12-29T04:08:17;3.53;;;1.20;;
64826;SDS011;51265;53.972;12.286;2023-12-29T04:10:44;5.40;;;1.35;;
64826;SDS011;51265;53.972;12.286;2023-12-29T04:13:10;6.40;;;1.30;;
64826;SDS011;51265;53.972;12.286;2023-12-29T04:15:36;4.35;;;1.30;;
64826;SDS011;51265;53.972;12.286;2023-12-29T04:18:02;5.05;;;1.25;;
64826;SDS011;51265;53.972;12.286;2023-12-29T04:20:29;2.78;;;1.17;;
64826;SDS011;51265;53.972;12.286;2023-12-29T04:22:55;3.30;;;0.90;;
64826;SDS011;51265;53.972;12.286;2023-12-29T04:25:21;3.13;;;1.00;;
64826;SDS011;51265;53.972;12.286;2023-12-29T04:27:47;4.25;;;1.35;;
64826;SDS011;51265;53.972;12.286;2023-12-29T04:30:14;8.23;;;1.55;;
64826;SDS011;51265;53.972;12.286;2023-12-29T04:32:40;5.40;;;1.00;;
64826;SDS011;51265;53.972;12.286;2023-12-29T04:35:06;7.18;;;1.63;;
64826;SDS011;51265;53.972;12.286;2023-12-29T04:37:33;6.28;;;1.48;;
64826;SDS011;51265;53.972;12.286;2023-12-29T04:39:59;5.53;;;1.15;;
64826;SDS011;51265;53.972;12.286;2023-12-29T04:42:25;5.55;;;1.42;;
64826;SDS011;51265;53.972;12.286;2023-12-29T04:44:51;3.92;;;1.10;;
64826;SDS011;51265;53.972;12.286;2023-12-29T04:47:17;4.57;;;1.25;;
64826;SDS011;51265;53.972;12.286;2023-12-29T04:49:43;3.67;;;1.17;;
64826;SDS011;51265;53.972;12.286;2023-12-29T04:52:10;2.90;;;1.00;;
64826;SDS011;51265;53.972;12.286;2023-12-29T04:54:36;6.10;;;1.10;;
64826;SDS011;51265;53.972;12.286;2023-12-29T04:57:02;2.90;;;1.00;;
64826;SDS011;51265;53.972;12.286;2023-12-29T04:59:28;6.68;;;1.40;;
64826;SDS011;51265;53.972;12.286;2023-12-29T05:01:54;5.68;;;1.02;;
64826;SDS011;51265;53.972;12.286;2023-12-29T05:04:20;4.75;;;1.58;;
64826;SDS011;51265;53.972;12.286;2023-12-29T05:06:47;5.30;;;0.98;;
64826;SDS011;51265;53.972;12.286;2023-12-29T05:09:13;6.00;;;1.30;;
64826;SDS011;51265;53.972;12.286;2023-12-29T05:11:39;9.45;;;1.13;;
64826;SDS011;51265;53.972;12.286;2023-12-29T05:14:05;4.43;;;1.20;;
64826;SDS011;51265;53.972;12.286;2023-12-29T05:16:32;5.40;;;1.10;;
64826;SDS011;51265;53.972;12.286;2023-12-29T05:18:58;3.15;;;1.17;;
64826;SDS011;51265;53.972;12.286;2023-12-29T05:21:24;4.22;;;1.25;;
64826;SDS011;51265;53.972;12.286;2023-12-29T05:23:51;3.30;;;1.23;;
64826;SDS011;51265;53.972;12.286;2023-12-29T05:26:18;4.30;;;0.90;;
64826;SDS011;51265;53.972;12.286;2023-12-29T05:28:44;2.85;;;0.85;;
64826;SDS011;51265;53.972;12.286;2023-12-29T05:31:10;3.78;;;0.77;;
64826;SDS011;51265;53.972;12.286;2023-12-29T05:33:36;4.32;;;0.82;;
64826;SDS011;51265;53.972;12.286;2023-12-29T05:36:06;6.20;;;1.15;;
64826;SDS011;51265;53.972;12.286;2023-12-29T05:38:33;2.05;;;0.60;;
64826;SDS011;51265;53.972;12.286;2023-12-29T05:41:01;3.10;;;0.80;;
64826;SDS011;51265;53.972;12.286;2023-12-29T05:43:30;4.10;;;1.00;;
64826;SDS011;51265;53.972;12.286;2023-12-29T05:45:58;3.50;;;0.80;;
64826;SDS011;51265;53.972;12.286;2023-12-29T05:48:24;1.48;;;0.77;;
64826;SDS011;51265;53.972;12.286;2023-12-29T05:50:50;2.42;;;0.43;;
64826;SDS011;51265;53.972;12.286;2023-12-29T05:53:17;3.40;;;0.68;;
64826;SDS011;51265;53.972;12.286;2023-12-29T05:55:43;4.85;;;1.05;;
64826;SDS011;51265;53.972;12.286;2023-12-29T05:58:10;1.65;;;0.60;;
64826;SDS011;51265;53.972;12.286;2023-12-29T06:00:37;3.13;;;0.43;;
64826;SDS011;51265;53.972;12.286;2023-12-29T06:03:04;1.42;;;0.38;;
64826;SDS011;51265;53.972;12.286;2023-12-29T06:05:31;2.60;;;0.50;;
64826;SDS011;51265;53.972;12.286;2023-12-29T06:07:58;2.03;;;0.50;;
64826;SDS011;51265;53.972;12.286;2023-12-29T06:10:24;2.22;;;0.50;;
64826;SDS011;51265;53.972;12.286;2023-12-29T06:12:50;0.70;;;0.40;;
64826;SDS011;51265;53.972;12.286;2023-12-29T06:15:19;3.90;;;0.60;;
64826;SDS011;51265;53.972;12.286;2023-12-29T06:17:46;0.98;;;0.40;;
64826;SDS011;51265;53.972;12.286;2023-12-29T06:20:12;1.05;;;0.50;;
64826;SDS011;51265;53.972;12.286;2023-12-29T06:22:39;2.75;;;0.40;;
64826;SDS011;51265;53.972;12.286;2023-12-29T06:25:10;1.38;;;0.30;;
64826;SDS011;51265;53.972;12.286;2023-12-29T06:27:37;1.23;;;0.47;;
64826;SDS011;51265;53.972;12.286;2023-12-29T06:30:05;0.73;;;0.43;;
64826;SDS011;51265;53.972;12.286;2023-12-29T06:32:32;2.08;;;0.40;;
64826;SDS011;51265;53.972;12.286;2023-12-29T06:34:58;3.38;;;0.40;;
64826;SDS011;51265;53.972;12.286;2023-12-29T06:37:24;3.50;;;0.25;;
64826;SDS011;51265;53.972;12.286;2023-12-29T06:39:50;0.98;;;0.65;;
64826;SDS011;51265;53.972;12.286;2023-12-29T06:42:16;5.00;;;0.60;;
64826;SDS011;51265;53.972;12.286;2023-12-29T06:44:42;3.88;;;0.77;;
64826;SDS011;51265;53.972;12.286;2023-12-29T06:47:08;1.48;;;0.60;;
64826;SDS011;51265;53.972;12.286;2023-12-29T06:49:35;3.75;;;0.75;;
64826;SDS011;51265;53.972;12.286;2023-12-29T06:52:01;2.20;;;0.50;;
64826;SDS011;51265;53.972;12.286;2023-12-29T06:54:28;2.00;;;0.60;;
64826;SDS011;51265;53.972;12.286;2023-12-29T06:56:54;5.15;;;0.82;;
64826;SDS011;51265;53.972;12.286;2023-12-29T06:59:20;1.48;;;0.65;;
64826;SDS011;51265;53.972;12.286;2023-12-29T07:01:46;3.95;;;0.63;;
64826;SDS011;51265;53.972;12.286;2023-12-29T07:04:12;3.70;;;0.85;;
64826;SDS011;51265;53.972;12.286;2023-12-29T07:06:39;3.80;;;0.82;;
64826;SDS011;51265;53.972;12.286;2023-12-29T07:09:05;3.63;;;0.60;;
64826;SDS011;51265;53.972;12.286;2023-12-29T07:11:32;5.90;;;0.98;;
64826;SDS011;51265;53.972;12.286;2023-12-29T07:13:58;3.05;;;0.90;;
64826;SDS011;51265;53.972;12.286;2023-12-29T07:16:24;11.23;;;1.63;;
64826;SDS011;51265;53.972;12.286;2023-12-29T07:18:50;5.22;;;1.10;;
64826;SDS011;51265;53.972;12.286;2023-12-29T07:21:17;3.75;;;0.98;;
64826;SDS011;51265;53.972;12.286;2023-12-29T07:23:43;4.25;;;1.27;;
64826;SDS011;51265;53.972;12.286;2023-12-29T07:26:09;3.83;;;0.80;;
64826;SDS011;51265;53.972;12.286;2023-12-29T07:28:36;4.38;;;0.88;;
64826;SDS011;51265;53.972;12.286;2023-12-29T07:31:02;4.70;;;1.25;;
64826;SDS011;51265;53.972;12.286;2023-12-29T07:33:28;6.38;;;1.60;;
64826;SDS011;51265;53.972;12.286;2023-12-29T07:35:55;4.18;;;1.10;;
64826;SDS011;51265;53.972;12.286;2023-12-29T07:38:22;3.78;;;0.80;;
64826;SDS011;51265;53.972;12.286;2023-12-29T07:40:49;2.35;;;0.60;;
64826;SDS011;51265;53.972;12.286;2023-12-29T07:43:16;5.05;;;1.15;;
64826;SDS011;51265;53.972;12.286;2023-12-29T07:45:42;6.07;;;1.00;;
64826;SDS011;51265;53.972;12.286;2023-12-29T07:48:09;3.47;;;0.70;;
64826;SDS011;51265;53.972;12.286;2023-12-29T07:50:35;5.38;;;0.90;;
64826;SDS011;51265;53.972;12.286;2023-12-29T07:53:02;4.85;;;1.10;;
64826;SDS011;51265;53.972;12.286;2023-12-29T07:55:30;4.30;;;1.38;;
64826;SDS011;51265;53.972;12.286;2023-12-29T07:57:57;6.38;;;1.80;;
64826;SDS011;51265;53.972;12.286;2023-12-29T08:00:23;6.07;;;1.10;;
64826;SDS011;51265;53.972;12.286;2023-12-29T08:02:51;5.72;;;1.40;;
64826;SDS011;51265;53.972;12.286;2023-12-29T08:05:17;4.65;;;1.23;;
64826;SDS011;51265;53.972;12.286;2023-12-29T08:07:44;4.20;;;1.08;;
64826;SDS011;51265;53.972;12.286;2023-12-29T08:10:10;6.10;;;1.10;;
64826;SDS011;51265;53.972;12.286;2023-12-29T08:12:36;3.10;;;0.90;;
64826;SDS011;51265;53.972;12.286;2023-12-29T08:15:02;6.85;;;1.27;;
64826;SDS011;51265;53.972;12.286;2023-12-29T08:17:29;5.63;;;0.98;;
64826;SDS011;51265;53.972;12.286;2023-12-29T08:19:57;4.00;;;0.85;;
64826;SDS011;51265;53.972;12.286;2023-12-29T08:22:23;3.70;;;1.10;;
64826;SDS011;51265;53.972;12.286;2023-12-29T08:24:49;4.20;;;0.85;;
64826;SDS011;51265;53.972;12.286;2023-12-29T08:27:22;5.35;;;1.00;;
64826;SDS011;51265;53.972;12.286;2023-12-29T08:29:48;4.75;;;1.05;;
64826;SDS011;51265;53.972;12.286;2023-12-29T08:32:15;4.03;;;1.08;;
64826;SDS011;51265;53.972;12.286;2023-12-29T08:34:41;4.88;;;0.98;;
64826;SDS011;51265;53.972;12.286;2023-12-29T08:37:07;4.75;;;1.00;;
64826;SDS011;51265;53.972;12.286;2023-12-29T08:39:33;7.22;;;1.20;;
64826;SDS011;51265;53.972;12.286;2023-12-29T08:41:59;8.57;;;1.38;;
64826;SDS011;51265;53.972;12.286;2023-12-29T08:44:25;4.78;;;1.10;;
64826;SDS011;51265;53.972;12.286;2023-12-29T08:46:51;5.80;;;1.30;;
64826;SDS011;51265;53.972;12.286;2023-12-29T08:49:18;7.07;;;1.50;;
64826;SDS011;51265;53.972;12.286;2023-12-29T08:51:44;8.00;;;1.45;;
64826;SDS011;51265;53.972;12.286;2023-12-29T08:54:10;4.95;;;1.00;;
64826;SDS011;51265;53.972;12.286;2023-12-29T08:56:36;6.18;;;1.35;;
64826;SDS011;51265;53.972;12.286;2023-12-29T08:59:02;4.53;;;0.82;;
64826;SDS011;51265;53.972;12.286;2023-12-29T09:01:28;7.53;;;1.33;;
64826;SDS011;51265;53.972;12.286;2023-12-29T09:03:55;6.25;;;1.50;;
64826;SDS011;51265;53.972;12.286;2023-12-29T09:06:21;6.35;;;1.17;;
64826;SDS011;51265;53.972;12.286;2023-12-29T09:08:47;7.88;;;1.85;;
64826;SDS011;51265;53.972;12.286;2023-12-29T09:11:13;5.10;;;1.48;;
64826;SDS011;51265;53.972;12.286;2023-12-29T09:13:39;7.22;;;1.40;;
64826;SDS011;51265;53.972;12.286;2023-12-29T09:16:05;5.38;;;1.27;;
64826;SDS011;51265;53.972;12.286;2023-12-29T09:18:32;3.90;;;1.13;;
64826;SDS011;51265;53.972;12.286;2023-12-29T09:20:58;5.85;;;0.98;;
64826;SDS011;51265;53.972;12.286;2023-12-29T09:23:24;7.50;;;1.38;;
64826;SDS011;51265;53.972;12.286;2023-12-29T09:25:50;4.10;;;1.10;;
64826;SDS011;51265;53.972;12.286;2023-12-29T09:28:17;4.25;;;1.15;;
64826;SDS011;51265;53.972;12.286;2023-12-29T09:30:43;5.40;;;1.42;;
64826;SDS011;51265;53.972;12.286;2023-12-29T09:33:09;8.55;;;1.30;;
64826;SDS011;51265;53.972;12.286;2023-12-29T09:35:38;7.75;;;1.10;;
64826;SDS011;51265;53.972;12.286;2023-12-29T09:38:05;4.97;;;1.20;;
64826;SDS011;51265;53.972;12.286;2023-12-29T09:40:31;4.80;;;0.98;;
64826;SDS011;51265;53.972;12.286;2023-12-29T09:42:58;4.60;;;1.25;;
64826;SDS011;51265;53.972;12.286;2023-12-29T09:45:27;4.85;;;1.38;;
64826;SDS011;51265;53.972;12.286;2023-12-29T09:47:54;4.57;;;1.00;;
64826;SDS011;51265;53.972;12.286;2023-12-29T09:50:23;7.78;;;1.30;;
64826;SDS011;51265;53.972;12.286;2023-12-29T09:52:51;6.60;;;1.13;;
64826;SDS011;51265;53.972;12.286;2023-12-29T09:55:18;6.13;;;1.60;;
64826;SDS011;51265;53.972;12.286;2023-12-29T09:57:46;6.13;;;1.30;;
64826;SDS011;51265;53.972;12.286;2023-12-29T10:00:15;5.45;;;1.45;;
64826;SDS011;51265;53.972;12.286;2023-12-29T10:02:42;7.70;;;1.08;;
64826;SDS011;51265;53.972;12.286;2023-12-29T10:05:08;6.68;;;1.40;;
64826;SDS011;51265;53.972;12.286;2023-12-29T10:07:36;5.90;;;1.45;;
64826;SDS011;51265;53.972;12.286;2023-12-29T10:10:06;5.25;;;1.25;;
64826;SDS011;51265;53.972;12.286;2023-12-29T10:12:32;5.03;;;1.27;;
64826;SDS011;51265;53.972;12.286;2023-12-29T10:26:15;5.68;;;1.65;;
64826;SDS011;51265;53.972;12.286;2023-12-29T10:28:42;4.50;;;1.15;;
64826;SDS011;51265;53.972;12.286;2023-12-29T10:31:09;4.80;;;0.80;;
64826;SDS011;51265;53.972;12.286;2023-12-29T10:33:41;10.27;;;1.75;;
64826;SDS011;51265;53.972;12.286;2023-12-29T10:36:07;4.28;;;1.00;;
64826;SDS011;51265;53.972;12.286;2023-12-29T10:38:34;6.45;;;1.52;;
64826;SDS011;51265;53.972;12.286;2023-12-29T10:41:18;8.60;;;2.10;;
64826;SDS011;51265;53.972;12.286;2023-12-29T10:43:46;3.75;;;1.27;;
64826;SDS011;51265;53.972;12.286;2023-12-29T10:46:13;8.00;;;1.60;;
64826;SDS011;51265;53.972;12.286;2023-12-29T10:48:39;3.03;;;0.85;;
64826;SDS011;51265;53.972;12.286;2023-12-29T10:51:06;5.57;;;1.10;;
64826;SDS011;51265;53.972;12.286;2023-12-29T10:53:32;9.23;;;1.30;;
64826;SDS011;51265;53.972;12.286;2023-12-29T10:55:59;7.75;;;1.33;;
64826;SDS011;51265;53.972;12.286;2023-12-29T10:58:29;3.60;;;0.93;;
64826;SDS011;51265;53.972;12.286;2023-12-29T11:00:57;2.95;;;0.73;;
64826;SDS011;51265;53.972;12.286;2023-12-29T11:03:24;3.03;;;0.90;;
64826;SDS011;51265;53.972;12.286;2023-12-29T11:05:51;4.57;;;1.10;;
64826;SDS011;51265;53.972;12.286;2023-12-29T11:08:24;4.28;;;1.10;;
64826;SDS011;51265;53.972;12.286;2023-12-29T11:10:50;2.88;;;0.73;;
64826;SDS011;51265;53.972;12.286;2023-12-29T11:13:16;4.80;;;1.05;;
64826;SDS011;51265;53.972;12.286;2023-12-29T11:15:43;3.17;;;0.80;;
64826;SDS011;51265;53.972;12.286;2023-12-29T11:18:14;3.47;;;0.73;;
64826;SDS011;51265;53.972;12.286;2023-12-29T11:20:43;5.45;;;0.55;;
64826;SDS011;51265;53.972;12.286;2023-12-29T11:23:10;3.70;;;0.80;;
64826;SDS011;51265;53.972;12.286;2023-12-29T11:25:39;2.38;;;0.60;;
64826;SDS011;51265;53.972;12.286;2023-12-29T11:28:09;2.08;;;0.50;;
64826;SDS011;51265;53.972;12.286;2023-12-29T11:30:38;2.87;;;0.60;;
64826;SDS011;51265;53.972;12.286;2023-12-29T11:33:18;2.78;;;0.68;;
64826;SDS011;51265;53.972;12.286;2023-12-29T11:43:32;4.47;;;0.77;;
64826;SDS011;51265;53.972;12.286;2023-12-29T11:45:59;3.05;;;0.80;;
64826;SDS011;51265;53.972;12.286;2023-12-29T11:51:29;2.97;;;0.85;;
64826;SDS011;51265;53.972;12.286;2023-12-29T11:54:06;7.18;;;1.20;;
64826;SDS011;51265;53.972;12.286;2023-12-29T11:56:39;4.65;;;1.13;;
64826;SDS011;51265;53.972;12.286;2023-12-29T12:01:40;5.45;;;1.10;;
64826;SDS011;51265;53.972;12.286;2023-12-29T12:07:06;3.40;;;1.02;;
64826;SDS011;51265;53.972;12.286;2023-12-29T12:09:43;4.90;;;1.00;;
64826;SDS011;51265;53.972;12.286;2023-12-29T12:12:09;4.93;;;0.88;;
64826;SDS011;51265;53.972;12.286;2023-12-29T12:14:51;7.53;;;1.80;;
64826;SDS011;51265;53.972;12.286;2023-12-29T12:17:26;4.35;;;1.20;;
64826;SDS011;51265;53.972;12.286;2023-12-29T12:20:04;6.00;;;0.73;;
64826;SDS011;51265;53.972;12.286;2023-12-29T12:22:35;4.93;;;0.90;;
64826;SDS011;51265;53.972;12.286;2023-12-29T12:25:02;6.25;;;0.98;;
64826;SDS011;51265;53.972;12.286;2023-12-29T12:27:30;5.72;;;1.20;;
64826;SDS011;51265;53.972;12.286;2023-12-29T12:29:58;6.00;;;1.20;;
64826;SDS011;51265;53.972;12.286;2023-12-29T12:32:26;5.07;;;1.30;;
64826;SDS011;51265;53.972;12.286;2023-12-29T12:34:54;7.00;;;0.93;;
64826;SDS011;51265;53.972;12.286;2023-12-29T12:37:21;6.70;;;1.40;;
64826;SDS011;51265;53.972;12.286;2023-12-29T12:39:49;2.83;;;0.70;;
64826;SDS011;51265;53.972;12.286;2023-12-29T12:42:16;5.10;;;1.23;;
64826;SDS011;51265;53.972;12.286;2023-12-29T12:44:53;4.97;;;1.10;;
64826;SDS011;51265;53.972;12.286;2023-12-29T12:47:24;3.92;;;0.85;;
64826;SDS011;51265;53.972;12.286;2023-12-29T12:49:53;3.75;;;1.02;;
64826;SDS011;51265;53.972;12.286;2023-12-29T12:52:19;4.32;;;1.30;;
64826;SDS011;51265;53.972;12.286;2023-12-29T12:54:46;5.20;;;1.08;;
64826;SDS011;51265;53.972;12.286;2023-12-29T12:57:17;5.18;;;0.98;;
64826;SDS011;51265;53.972;12.286;2023-12-29T12:59:45;4.28;;;1.10;;
64826;SDS011;51265;53.972;12.286;2023-12-29T13:02:11;4.55;;;0.88;;
64826;SDS011;51265;53.972;12.286;2023-12-29T13:04:39;6.78;;;1.35;;
64826;SDS011;51265;53.972;12.286;2023-12-29T13:07:07;9.75;;;1.38;;
64826;SDS011;51265;53.972;12.286;2023-12-29T13:09:37;7.25;;;1.27;;
64826;SDS011;51265;53.972;12.286;2023-12-29T13:12:07;4.70;;;1.20;;
64826;SDS011;51265;53.972;12.286;2023-12-29T13:14:37;6.97;;;1.45;;
64826;SDS011;51265;53.972;12.286;2023-12-29T13:17:07;4.70;;;1.55;;
64826;SDS011;51265;53.972;12.286;2023-12-29T13:19:37;8.00;;;1.30;;
64826;SDS011;51265;53.972;12.286;2023-12-29T13:22:05;4.60;;;1.10;;
64826;SDS011;51265;53.972;12.286;2023-12-29T13:24:33;6.63;;;1.27;;
64826;SDS011;51265;53.972;12.286;2023-12-29T13:27:03;6.88;;;1.30;;
64826;SDS011;51265;53.972;12.286;2023-12-29T13:29:31;5.50;;;1.20;;
64826;SDS011;51265;53.972;12.286;2023-12-29T13:32:00;4.68;;;1.35;;
64826;SDS011;51265;53.972;12.286;2023-12-29T13:35:04;6.95;;;1.42;;
64826;SDS011;51265;53.972;12.286;2023-12-29T13:37:37;3.40;;;0.77;;
64826;SDS011;51265;53.972;12.286;2023-12-29T13:40:17;3.63;;;1.02;;
64826;SDS011;51265;53.972;12.286;2023-12-29T13:42:50;6.50;;;1.20;;
64826;SDS011;51265;53.972;12.286;2023-12-29T13:45:23;6.50;;;0.90;;
64826;SDS011;51265;53.972;12.286;2023-12-29T13:47:50;3.72;;;0.80;;
64826;SDS011;51265;53.972;12.286;2023-12-29T13:50:16;4.07;;;1.00;;
64826;SDS011;51265;53.972;12.286;2023-12-29T13:52:43;4.50;;;1.08;;
64826;SDS011;51265;53.972;12.286;2023-12-29T13:55:09;5.78;;;1.00;;
64826;SDS011;51265;53.972;12.286;2023-12-29T13:57:35;4.90;;;1.00;;
64826;SDS011;51265;53.972;12.286;2023-12-29T14:00:21;3.33;;;0.82;;
64826;SDS011;51265;53.972;12.286;2023-12-29T14:05:31;4.40;;;1.10;;
64826;SDS011;51265;53.972;12.286;2023-12-29T14:10:34;4.45;;;0.93;;
64826;SDS011;51265;53.972;12.286;2023-12-29T14:15:38;3.72;;;0.85;;
64826;SDS011;51265;53.972;12.286;2023-12-29T14:20:38;3.60;;;0.90;;
64826;SDS011;51265;53.972;12.286;2023-12-29T14:23:06;6.55;;;1.15;;
64826;SDS011;51265;53.972;12.286;2023-12-29T14:25:35;4.95;;;1.23;;
64826;SDS011;51265;53.972;12.286;2023-12-29T14:28:05;4.68;;;1.27;;
64826;SDS011;51265;53.972;12.286;2023-12-29T14:30:41;6.05;;;1.00;;
64826;SDS011;51265;53.972;12.286;2023-12-29T14:33:07;4.30;;;1.30;;
64826;SDS011;51265;53.972;12.286;2023-12-29T14:35:33;5.45;;;1.92;;
64826;SDS011;51265;53.972;12.286;2023-12-29T14:38:00;9.38;;;1.48;;
64826;SDS011;51265;53.972;12.286;2023-12-29T14:40:26;3.60;;;1.02;;
64826;SDS011;51265;53.972;12.286;2023-12-29T14:42:53;4.50;;;1.02;;
64826;SDS011;51265;53.972;12.286;2023-12-29T14:45:19;6.72;;;1.38;;
64826;SDS011;51265;53.972;12.286;2023-12-29T14:47:45;3.33;;;1.00;;
64826;SDS011;51265;53.972;12.286;2023-12-29T14:50:12;6.03;;;1.20;;
64826;SDS011;51265;53.972;12.286;2023-12-29T14:52:38;5.35;;;1.25;;
64826;SDS011;51265;53.972;12.286;2023-12-29T14:55:05;4.53;;;1.35;;
64826;SDS011;51265;53.972;12.286;2023-12-29T14:57:31;5.10;;;1.08;;
64826;SDS011;51265;53.972;12.286;2023-12-29T14:59:57;6.63;;;1.38;;
64826;SDS011;51265;53.972;12.286;2023-12-29T15:02:24;5.93;;;1.10;;
64826;SDS011;51265;53.972;12.286;2023-12-29T15:04:50;3.70;;;1.13;;
64826;SDS011;51265;53.972;12.286;2023-12-29T15:07:16;4.43;;;1.10;;
64826;SDS011;51265;53.972;12.286;2023-12-29T15:09:44;5.65;;;1.15;;
64826;SDS011;51265;53.972;12.286;2023-12-29T15:12:10;3.10;;;1.08;;
64826;SDS011;51265;53.972;12.286;2023-12-29T15:14:36;6.18;;;0.98;;
64826;SDS011;51265;53.972;12.286;2023-12-29T15:17:02;3.22;;;1.40;;
64826;SDS011;51265;53.972;12.286;2023-12-29T15:19:29;6.28;;;1.48;;